CUP weather

General Francisco Bermúdez Airport
Carúpano, Sucre, Venezuela

Public forecast

Using degrees Celsius for public forecast. Weather courtesy of forecast.io.

METAR (pilot weather report)

Report is more than 6 hours old.

Retrieved 2017/11/23 16:00 UTC (1 year ago):

SVCP 231600Z NI

TAF (pilot weather forecast)

Forecast is more than 12 hours old.

Closest forecast is Del Caribe Santiago Mariño International Airport, 44.3 nm (82.0 km) WNW. Retrieved 2019/02/18 18:03 UTC (1 day ago):

TAF SVMG 181600Z 1818/1918 08004KT 9999 SCT016 TX30/18Z TN25/07Z BECMG 1818/1822 09015KT SCT016